sensor_id;sensor_type;location;lat;lon;timestamp;P1;durP1;ratioP1;P2;durP2;ratioP2
57327;SDS011;43162;51.040;18.244;2024-02-15T00:00:17;48.10;;;23.30;;
57327;SDS011;43162;51.040;18.244;2024-02-15T00:02:43;44.60;;;21.30;;
57327;SDS011;43162;51.040;18.244;2024-02-15T00:05:12;41.30;;;21.80;;
57327;SDS011;43162;51.040;18.244;2024-02-15T00:07:38;35.80;;;19.00;;
57327;SDS011;43162;51.040;18.244;2024-02-15T00:10:04;39.80;;;20.90;;
57327;SDS011;43162;51.040;18.244;2024-02-15T00:12:30;44.50;;;23.50;;
57327;SDS011;43162;51.040;18.244;2024-02-15T00:14:55;36.80;;;20.60;;
57327;SDS011;43162;51.040;18.244;2024-02-15T00:17:24;41.00;;;20.80;;
57327;SDS011;43162;51.040;18.244;2024-02-15T00:19:50;39.90;;;20.30;;
57327;SDS011;43162;51.040;18.244;2024-02-15T00:22:16;39.70;;;21.30;;
57327;SDS011;43162;51.040;18.244;2024-02-15T00:24:42;33.20;;;19.70;;
57327;SDS011;43162;51.040;18.244;2024-02-15T00:27:08;47.50;;;21.80;;
57327;SDS011;43162;51.040;18.244;2024-02-15T00:29:34;35.90;;;20.40;;
57327;SDS011;43162;51.040;18.244;2024-02-15T00:32:00;47.20;;;23.10;;
57327;SDS011;43162;51.040;18.244;2024-02-15T00:34:26;43.30;;;25.00;;
57327;SDS011;43162;51.040;18.244;2024-02-15T00:36:52;42.70;;;22.90;;
57327;SDS011;43162;51.040;18.244;2024-02-15T00:39:18;41.80;;;22.90;;
57327;SDS011;43162;51.040;18.244;2024-02-15T00:41:45;36.50;;;20.10;;
57327;SDS011;43162;51.040;18.244;2024-02-15T00:44:11;39.20;;;20.50;;
57327;SDS011;43162;51.040;18.244;2024-02-15T00:46:37;35.90;;;19.30;;
57327;SDS011;43162;51.040;18.244;2024-02-15T00:49:03;36.80;;;19.00;;
57327;SDS011;43162;51.040;18.244;2024-02-15T00:51:31;35.90;;;18.50;;
57327;SDS011;43162;51.040;18.244;2024-02-15T00:54:01;43.10;;;25.20;;
57327;SDS011;43162;51.040;18.244;2024-02-15T00:56:27;43.00;;;25.30;;
57327;SDS011;43162;51.040;18.244;2024-02-15T00:58:55;44.10;;;20.60;;
57327;SDS011;43162;51.040;18.244;2024-02-15T01:01:21;42.60;;;19.60;;
57327;SDS011;43162;51.040;18.244;2024-02-15T01:03:47;41.30;;;21.40;;
57327;SDS011;43162;51.040;18.244;2024-02-15T01:06:12;47.00;;;23.30;;
57327;SDS011;43162;51.040;18.244;2024-02-15T01:08:38;47.00;;;23.50;;
57327;SDS011;43162;51.040;18.244;2024-02-15T01:11:04;53.00;;;27.70;;
57327;SDS011;43162;51.040;18.244;2024-02-15T01:13:31;55.20;;;25.20;;
57327;SDS011;43162;51.040;18.244;2024-02-15T01:15:57;55.90;;;26.70;;
57327;SDS011;43162;51.040;18.244;2024-02-15T01:18:23;44.70;;;24.00;;
57327;SDS011;43162;51.040;18.244;2024-02-15T01:20:49;45.80;;;23.40;;
57327;SDS011;43162;51.040;18.244;2024-02-15T01:23:14;43.50;;;24.40;;
57327;SDS011;43162;51.040;18.244;2024-02-15T01:25:40;38.90;;;22.20;;
57327;SDS011;43162;51.040;18.244;2024-02-15T01:28:06;45.70;;;20.80;;
57327;SDS011;43162;51.040;18.244;2024-02-15T01:30:31;42.30;;;19.50;;
57327;SDS011;43162;51.040;18.244;2024-02-15T01:32:57;37.40;;;18.80;;
57327;SDS011;43162;51.040;18.244;2024-02-15T01:35:23;36.50;;;19.40;;
57327;SDS011;43162;51.040;18.244;2024-02-15T01:37:50;39.20;;;22.60;;
57327;SDS011;43162;51.040;18.244;2024-02-15T01:40:15;53.60;;;25.60;;
57327;SDS011;43162;51.040;18.244;2024-02-15T01:42:44;72.40;;;25.40;;
57327;SDS011;43162;51.040;18.244;2024-02-15T01:45:10;156.80;;;41.30;;
57327;SDS011;43162;51.040;18.244;2024-02-15T01:47:37;151.20;;;46.40;;
57327;SDS011;43162;51.040;18.244;2024-02-15T01:50:05;97.20;;;35.70;;
57327;SDS011;43162;51.040;18.244;2024-02-15T01:52:32;69.20;;;28.10;;
57327;SDS011;43162;51.040;18.244;2024-02-15T01:54:59;65.50;;;27.50;;
57327;SDS011;43162;51.040;18.244;2024-02-15T01:57:24;53.80;;;24.90;;
57327;SDS011;43162;51.040;18.244;2024-02-15T01:59:50;43.10;;;23.00;;
57327;SDS011;43162;51.040;18.244;2024-02-15T02:02:20;40.30;;;21.40;;
57327;SDS011;43162;51.040;18.244;2024-02-15T02:04:47;37.80;;;20.60;;
57327;SDS011;43162;51.040;18.244;2024-02-15T02:07:12;38.40;;;20.30;;
57327;SDS011;43162;51.040;18.244;2024-02-15T02:09:40;38.90;;;18.60;;
57327;SDS011;43162;51.040;18.244;2024-02-15T02:12:05;31.90;;;18.40;;
57327;SDS011;43162;51.040;18.244;2024-02-15T02:14:32;35.10;;;18.60;;
57327;SDS011;43162;51.040;18.244;2024-02-15T02:17:10;39.20;;;20.70;;
57327;SDS011;43162;51.040;18.244;2024-02-15T02:19:36;36.80;;;19.70;;
57327;SDS011;43162;51.040;18.244;2024-02-15T02:22:03;38.20;;;20.00;;
57327;SDS011;43162;51.040;18.244;2024-02-15T02:24:31;35.40;;;17.80;;
57327;SDS011;43162;51.040;18.244;2024-02-15T02:27:05;33.30;;;17.50;;
57327;SDS011;43162;51.040;18.244;2024-02-15T02:29:33;32.90;;;17.80;;
57327;SDS011;43162;51.040;18.244;2024-02-15T02:31:59;33.70;;;18.40;;
57327;SDS011;43162;51.040;18.244;2024-02-15T02:34:24;30.70;;;18.10;;
57327;SDS011;43162;51.040;18.244;2024-02-15T02:36:51;30.40;;;16.20;;
57327;SDS011;43162;51.040;18.244;2024-02-15T02:39:16;31.20;;;17.80;;
57327;SDS011;43162;51.040;18.244;2024-02-15T02:41:42;33.70;;;18.50;;
57327;SDS011;43162;51.040;18.244;2024-02-15T02:44:08;35.20;;;19.00;;
57327;SDS011;43162;51.040;18.244;2024-02-15T02:46:34;32.10;;;18.10;;
57327;SDS011;43162;51.040;18.244;2024-02-15T02:49:00;32.00;;;16.70;;
57327;SDS011;43162;51.040;18.244;2024-02-15T02:51:26;35.50;;;15.80;;
57327;SDS011;43162;51.040;18.244;2024-02-15T02:53:52;27.50;;;14.10;;
57327;SDS011;43162;51.040;18.244;2024-02-15T02:56:17;30.90;;;16.50;;
57327;SDS011;43162;51.040;18.244;2024-02-15T02:58:43;26.80;;;16.00;;
57327;SDS011;43162;51.040;18.244;2024-02-15T03:01:09;37.50;;;20.20;;
57327;SDS011;43162;51.040;18.244;2024-02-15T03:03:36;29.60;;;17.00;;
57327;SDS011;43162;51.040;18.244;2024-02-15T03:06:01;28.40;;;17.70;;
57327;SDS011;43162;51.040;18.244;2024-02-15T03:08:27;33.40;;;18.40;;
57327;SDS011;43162;51.040;18.244;2024-02-15T03:10:53;31.80;;;17.30;;
57327;SDS011;43162;51.040;18.244;2024-02-15T03:13:18;29.40;;;16.20;;
57327;SDS011;43162;51.040;18.244;2024-02-15T03:15:46;33.80;;;17.00;;
57327;SDS011;43162;51.040;18.244;2024-02-15T03:18:16;31.50;;;17.00;;
57327;SDS011;43162;51.040;18.244;2024-02-15T03:20:42;31.20;;;17.00;;
57327;SDS011;43162;51.040;18.244;2024-02-15T03:23:08;33.90;;;18.20;;
57327;SDS011;43162;51.040;18.244;2024-02-15T03:25:34;33.80;;;17.30;;
57327;SDS011;43162;51.040;18.244;2024-02-15T03:28:00;32.00;;;18.60;;
57327;SDS011;43162;51.040;18.244;2024-02-15T03:30:30;30.90;;;17.50;;
57327;SDS011;43162;51.040;18.244;2024-02-15T03:32:57;30.30;;;15.90;;
57327;SDS011;43162;51.040;18.244;2024-02-15T03:35:24;31.80;;;17.60;;
57327;SDS011;43162;51.040;18.244;2024-02-15T03:37:51;31.80;;;17.30;;
57327;SDS011;43162;51.040;18.244;2024-02-15T03:40:17;35.10;;;18.60;;
57327;SDS011;43162;51.040;18.244;2024-02-15T03:42:44;31.90;;;18.10;;
57327;SDS011;43162;51.040;18.244;2024-02-15T03:45:11;37.20;;;18.20;;
57327;SDS011;43162;51.040;18.244;2024-02-15T03:47:36;32.00;;;17.90;;
57327;SDS011;43162;51.040;18.244;2024-02-15T03:50:05;37.30;;;18.70;;
57327;SDS011;43162;51.040;18.244;2024-02-15T03:52:33;31.80;;;18.40;;
57327;SDS011;43162;51.040;18.244;2024-02-15T03:54:58;27.40;;;16.50;;
57327;SDS011;43162;51.040;18.244;2024-02-15T03:57:25;35.30;;;18.00;;
57327;SDS011;43162;51.040;18.244;2024-02-15T03:59:51;34.60;;;20.80;;
57327;SDS011;43162;51.040;18.244;2024-02-15T04:02:21;33.50;;;21.30;;
57327;SDS011;43162;51.040;18.244;2024-02-15T04:04:49;32.00;;;20.80;;
57327;SDS011;43162;51.040;18.244;2024-02-15T04:07:18;40.40;;;19.50;;
57327;SDS011;43162;51.040;18.244;2024-02-15T04:09:44;32.40;;;19.70;;
57327;SDS011;43162;51.040;18.244;2024-02-15T04:12:11;31.90;;;18.20;;
57327;SDS011;43162;51.040;18.244;2024-02-15T04:14:37;37.80;;;20.30;;
57327;SDS011;43162;51.040;18.244;2024-02-15T04:17:04;28.80;;;19.00;;
57327;SDS011;43162;51.040;18.244;2024-02-15T04:19:33;35.10;;;19.60;;
57327;SDS011;43162;51.040;18.244;2024-02-15T04:21:59;32.90;;;21.10;;
57327;SDS011;43162;51.040;18.244;2024-02-15T04:24:26;41.80;;;24.80;;
57327;SDS011;43162;51.040;18.244;2024-02-15T04:26:52;32.90;;;23.30;;
57327;SDS011;43162;51.040;18.244;2024-02-15T04:29:18;35.70;;;20.90;;
57327;SDS011;43162;51.040;18.244;2024-02-15T04:31:46;29.60;;;18.60;;
57327;SDS011;43162;51.040;18.244;2024-02-15T04:34:15;34.60;;;19.20;;
57327;SDS011;43162;51.040;18.244;2024-02-15T04:36:43;37.10;;;19.30;;
57327;SDS011;43162;51.040;18.244;2024-02-15T04:39:15;39.10;;;19.00;;
57327;SDS011;43162;51.040;18.244;2024-02-15T04:41:52;34.10;;;20.60;;
57327;SDS011;43162;51.040;18.244;2024-02-15T04:44:18;36.00;;;22.20;;
57327;SDS011;43162;51.040;18.244;2024-02-15T04:46:46;33.60;;;19.50;;
57327;SDS011;43162;51.040;18.244;2024-02-15T04:49:12;31.90;;;19.70;;
57327;SDS011;43162;51.040;18.244;2024-02-15T04:51:39;33.20;;;18.80;;
57327;SDS011;43162;51.040;18.244;2024-02-15T04:54:09;34.70;;;20.50;;
57327;SDS011;43162;51.040;18.244;2024-02-15T04:56:38;35.70;;;21.40;;
57327;SDS011;43162;51.040;18.244;2024-02-15T04:59:05;59.80;;;27.00;;
57327;SDS011;43162;51.040;18.244;2024-02-15T05:01:34;82.20;;;34.20;;
57327;SDS011;43162;51.040;18.244;2024-02-15T05:04:00;79.30;;;32.30;;
57327;SDS011;43162;51.040;18.244;2024-02-15T05:06:31;84.20;;;36.10;;
57327;SDS011;43162;51.040;18.244;2024-02-15T05:08:57;99.90;;;41.60;;
57327;SDS011;43162;51.040;18.244;2024-02-15T05:11:25;112.70;;;41.40;;
57327;SDS011;43162;51.040;18.244;2024-02-15T05:13:51;77.70;;;32.40;;
57327;SDS011;43162;51.040;18.244;2024-02-15T05:16:18;47.20;;;23.40;;
57327;SDS011;43162;51.040;18.244;2024-02-15T05:18:44;49.40;;;25.80;;
57327;SDS011;43162;51.040;18.244;2024-02-15T05:21:11;38.50;;;21.60;;
57327;SDS011;43162;51.040;18.244;2024-02-15T05:23:37;40.90;;;21.80;;
57327;SDS011;43162;51.040;18.244;2024-02-15T05:26:05;37.40;;;21.50;;
57327;SDS011;43162;51.040;18.244;2024-02-15T05:28:31;28.80;;;18.10;;
57327;SDS011;43162;51.040;18.244;2024-02-15T05:33:42;34.40;;;18.80;;
57327;SDS011;43162;51.040;18.244;2024-02-15T05:36:18;32.80;;;17.70;;
57327;SDS011;43162;51.040;18.244;2024-02-15T05:38:46;33.80;;;18.50;;
57327;SDS011;43162;51.040;18.244;2024-02-15T05:41:13;35.70;;;21.30;;
57327;SDS011;43162;51.040;18.244;2024-02-15T05:43:39;36.50;;;20.40;;
57327;SDS011;43162;51.040;18.244;2024-02-15T05:46:07;42.10;;;21.80;;
57327;SDS011;43162;51.040;18.244;2024-02-15T05:48:33;39.10;;;20.10;;
57327;SDS011;43162;51.040;18.244;2024-02-15T05:51:02;36.60;;;20.00;;
57327;SDS011;43162;51.040;18.244;2024-02-15T05:53:29;30.10;;;19.50;;
57327;SDS011;43162;51.040;18.244;2024-02-15T05:55:55;38.30;;;22.40;;
57327;SDS011;43162;51.040;18.244;2024-02-15T05:58:25;37.80;;;23.70;;
57327;SDS011;43162;51.040;18.244;2024-02-15T06:00:51;46.80;;;25.50;;
57327;SDS011;43162;51.040;18.244;2024-02-15T06:03:17;43.30;;;25.70;;
57327;SDS011;43162;51.040;18.244;2024-02-15T06:05:43;51.00;;;26.30;;
57327;SDS011;43162;51.040;18.244;2024-02-15T06:08:12;55.20;;;26.00;;
57327;SDS011;43162;51.040;18.244;2024-02-15T06:10:38;56.10;;;26.20;;
57327;SDS011;43162;51.040;18.244;2024-02-15T06:13:05;67.40;;;26.10;;
57327;SDS011;43162;51.040;18.244;2024-02-15T06:15:31;66.00;;;27.30;;
57327;SDS011;43162;51.040;18.244;2024-02-15T06:17:57;52.70;;;25.10;;
57327;SDS011;43162;51.040;18.244;2024-02-15T06:20:22;48.10;;;25.30;;
57327;SDS011;43162;51.040;18.244;2024-02-15T06:22:48;45.60;;;24.20;;
57327;SDS011;43162;51.040;18.244;2024-02-15T06:25:14;57.00;;;25.30;;
57327;SDS011;43162;51.040;18.244;2024-02-15T06:27:46;47.90;;;26.90;;
57327;SDS011;43162;51.040;18.244;2024-02-15T06:30:14;51.80;;;24.00;;
57327;SDS011;43162;51.040;18.244;2024-02-15T06:32:58;43.60;;;23.10;;
57327;SDS011;43162;51.040;18.244;2024-02-15T06:35:42;44.80;;;23.20;;
57327;SDS011;43162;51.040;18.244;2024-02-15T06:38:26;37.70;;;19.50;;
57327;SDS011;43162;51.040;18.244;2024-02-15T06:41:11;34.40;;;19.60;;
57327;SDS011;43162;51.040;18.244;2024-02-15T06:43:37;30.10;;;20.30;;
57327;SDS011;43162;51.040;18.244;2024-02-15T06:46:08;32.80;;;20.60;;
57327;SDS011;43162;51.040;18.244;2024-02-15T06:48:34;32.70;;;19.80;;
57327;SDS011;43162;51.040;18.244;2024-02-15T06:50:59;31.50;;;19.90;;
57327;SDS011;43162;51.040;18.244;2024-02-15T06:53:25;30.50;;;18.10;;
57327;SDS011;43162;51.040;18.244;2024-02-15T06:55:50;31.10;;;17.90;;
57327;SDS011;43162;51.040;18.244;2024-02-15T06:58:16;34.10;;;21.10;;
57327;SDS011;43162;51.040;18.244;2024-02-15T07:00:42;44.30;;;24.00;;
57327;SDS011;43162;51.040;18.244;2024-02-15T07:03:11;48.50;;;27.50;;
57327;SDS011;43162;51.040;18.244;2024-02-15T07:05:37;47.70;;;30.10;;
57327;SDS011;43162;51.040;18.244;2024-02-15T07:08:07;43.00;;;24.00;;
57327;SDS011;43162;51.040;18.244;2024-02-15T07:10:32;34.90;;;21.40;;
57327;SDS011;43162;51.040;18.244;2024-02-15T07:12:58;28.20;;;18.80;;
57327;SDS011;43162;51.040;18.244;2024-02-15T07:15:24;40.00;;;21.50;;
57327;SDS011;43162;51.040;18.244;2024-02-15T07:17:50;30.10;;;19.20;;
57327;SDS011;43162;51.040;18.244;2024-02-15T07:20:20;37.30;;;21.70;;
57327;SDS011;43162;51.040;18.244;2024-02-15T07:22:48;41.40;;;28.10;;
57327;SDS011;43162;51.040;18.244;2024-02-15T07:25:13;35.50;;;23.80;;
57327;SDS011;43162;51.040;18.244;2024-02-15T07:27:40;30.00;;;21.20;;
57327;SDS011;43162;51.040;18.244;2024-02-15T07:30:06;32.60;;;19.70;;
57327;SDS011;43162;51.040;18.244;2024-02-15T07:32:33;32.10;;;18.20;;
57327;SDS011;43162;51.040;18.244;2024-02-15T07:35:00;33.90;;;19.80;;
57327;SDS011;43162;51.040;18.244;2024-02-15T07:37:26;29.20;;;18.30;;
57327;SDS011;43162;51.040;18.244;2024-02-15T07:39:54;35.30;;;19.20;;
57327;SDS011;43162;51.040;18.244;2024-02-15T07:42:20;33.50;;;18.30;;
57327;SDS011;43162;51.040;18.244;2024-02-15T07:44:46;31.80;;;20.90;;
57327;SDS011;43162;51.040;18.244;2024-02-15T07:47:11;35.00;;;21.50;;
57327;SDS011;43162;51.040;18.244;2024-02-15T07:49:37;39.80;;;22.90;;
57327;SDS011;43162;51.040;18.244;2024-02-15T07:52:02;42.80;;;25.50;;
57327;SDS011;43162;51.040;18.244;2024-02-15T07:54:32;34.80;;;21.00;;
57327;SDS011;43162;51.040;18.244;2024-02-15T07:56:58;39.00;;;22.30;;
57327;SDS011;43162;51.040;18.244;2024-02-15T07:59:24;33.30;;;21.20;;
57327;SDS011;43162;51.040;18.244;2024-02-15T08:01:50;34.40;;;18.70;;
57327;SDS011;43162;51.040;18.244;2024-02-15T08:04:16;33.40;;;19.80;;
57327;SDS011;43162;51.040;18.244;2024-02-15T08:06:50;29.80;;;18.90;;
57327;SDS011;43162;51.040;18.244;2024-02-15T08:09:18;27.60;;;19.00;;
57327;SDS011;43162;51.040;18.244;2024-02-15T08:11:47;29.30;;;19.40;;
57327;SDS011;43162;51.040;18.244;2024-02-15T08:14:14;31.00;;;16.90;;
57327;SDS011;43162;51.040;18.244;2024-02-15T08:16:39;28.30;;;16.50;;
57327;SDS011;43162;51.040;18.244;2024-02-15T08:19:06;31.30;;;17.90;;
57327;SDS011;43162;51.040;18.244;2024-02-15T08:21:32;25.50;;;17.20;;
57327;SDS011;43162;51.040;18.244;2024-02-15T08:24:04;33.10;;;18.30;;
57327;SDS011;43162;51.040;18.244;2024-02-15T08:26:33;27.10;;;17.50;;
57327;SDS011;43162;51.040;18.244;2024-02-15T08:29:06;29.40;;;19.00;;
57327;SDS011;43162;51.040;18.244;2024-02-15T08:31:32;26.70;;;16.80;;
57327;SDS011;43162;51.040;18.244;2024-02-15T08:33:58;24.50;;;15.90;;
57327;SDS011;43162;51.040;18.244;2024-02-15T08:36:23;25.60;;;15.40;;
57327;SDS011;43162;51.040;18.244;2024-02-15T08:38:49;23.80;;;15.40;;
57327;SDS011;43162;51.040;18.244;2024-02-15T08:41:15;26.30;;;15.90;;
57327;SDS011;43162;51.040;18.244;2024-02-15T08:43:43;28.80;;;17.70;;
57327;SDS011;43162;51.040;18.244;2024-02-15T08:46:09;26.50;;;17.80;;
57327;SDS011;43162;51.040;18.244;2024-02-15T08:48:38;30.70;;;19.80;;
57327;SDS011;43162;51.040;18.244;2024-02-15T08:51:04;32.90;;;17.50;;
57327;SDS011;43162;51.040;18.244;2024-02-15T08:53:31;31.30;;;17.50;;
57327;SDS011;43162;51.040;18.244;2024-02-15T08:55:57;24.90;;;15.90;;
57327;SDS011;43162;51.040;18.244;2024-02-15T08:58:23;27.90;;;16.80;;
57327;SDS011;43162;51.040;18.244;2024-02-15T09:00:48;26.60;;;15.60;;
57327;SDS011;43162;51.040;18.244;2024-02-15T09:03:14;25.20;;;16.10;;
57327;SDS011;43162;51.040;18.244;2024-02-15T09:05:39;26.80;;;16.70;;
57327;SDS011;43162;51.040;18.244;2024-02-15T09:08:08;27.90;;;17.70;;
57327;SDS011;43162;51.040;18.244;2024-02-15T09:10:34;24.50;;;16.60;;
57327;SDS011;43162;51.040;18.244;2024-02-15T09:13:01;27.80;;;17.40;;
57327;SDS011;43162;51.040;18.244;2024-02-15T09:15:27;30.00;;;16.50;;
57327;SDS011;43162;51.040;18.244;2024-02-15T09:17:56;27.50;;;16.20;;
57327;SDS011;43162;51.040;18.244;2024-02-15T09:20:23;26.40;;;16.30;;
57327;SDS011;43162;51.040;18.244;2024-02-15T09:25:22;35.30;;;19.40;;
57327;SDS011;43162;51.040;18.244;2024-02-15T09:27:48;39.00;;;20.20;;
57327;SDS011;43162;51.040;18.244;2024-02-15T09:30:15;40.80;;;20.00;;
57327;SDS011;43162;51.040;18.244;2024-02-15T09:32:41;55.90;;;26.00;;
57327;SDS011;43162;51.040;18.244;2024-02-15T09:35:08;40.40;;;21.60;;
57327;SDS011;43162;51.040;18.244;2024-02-15T09:37:35;29.50;;;14.50;;
57327;SDS011;43162;51.040;18.244;2024-02-15T09:40:02;24.90;;;15.40;;
57327;SDS011;43162;51.040;18.244;2024-02-15T09:42:32;29.60;;;15.40;;
57327;SDS011;43162;51.040;18.244;2024-02-15T09:45:01;28.80;;;16.20;;
57327;SDS011;43162;51.040;18.244;2024-02-15T09:47:33;24.60;;;15.20;;
57327;SDS011;43162;51.040;18.244;2024-02-15T09:50:01;21.30;;;13.80;;
57327;SDS011;43162;51.040;18.244;2024-02-15T09:52:27;22.80;;;14.20;;
57327;SDS011;43162;51.040;18.244;2024-02-15T09:54:57;23.60;;;14.70;;
57327;SDS011;43162;51.040;18.244;2024-02-15T09:57:24;26.30;;;15.60;;
57327;SDS011;43162;51.040;18.244;2024-02-15T09:59:49;24.00;;;14.70;;
57327;SDS011;43162;51.040;18.244;2024-02-15T10:02:15;22.50;;;14.70;;
57327;SDS011;43162;51.040;18.244;2024-02-15T10:04:41;22.00;;;15.10;;
57327;SDS011;43162;51.040;18.244;2024-02-15T10:07:08;24.80;;;14.60;;
57327;SDS011;43162;51.040;18.244;2024-02-15T10:09:34;24.40;;;15.40;;
57327;SDS011;43162;51.040;18.244;2024-02-15T10:12:02;24.90;;;16.00;;
57327;SDS011;43162;51.040;18.244;2024-02-15T10:14:32;21.90;;;14.60;;
57327;SDS011;43162;51.040;18.244;2024-02-15T10:17:05;23.70;;;14.00;;
57327;SDS011;43162;51.040;18.244;2024-02-15T10:19:35;19.70;;;14.00;;
57327;SDS011;43162;51.040;18.244;2024-02-15T10:22:08;22.70;;;13.50;;
57327;SDS011;43162;51.040;18.244;2024-02-15T10:24:34;22.20;;;14.30;;
57327;SDS011;43162;51.040;18.244;2024-02-15T10:27:01;22.50;;;14.80;;
57327;SDS011;43162;51.040;18.244;2024-02-15T10:29:31;17.80;;;12.30;;
57327;SDS011;43162;51.040;18.244;2024-02-15T10:31:59;30.60;;;15.40;;
57327;SDS011;43162;51.040;18.244;2024-02-15T10:34:25;29.10;;;15.30;;
57327;SDS011;43162;51.040;18.244;2024-02-15T10:36:54;23.80;;;13.70;;
57327;SDS011;43162;51.040;18.244;2024-02-15T10:39:22;23.50;;;14.40;;
57327;SDS011;43162;51.040;18.244;2024-02-15T10:44:15;24.80;;;14.10;;
57327;SDS011;43162;51.040;18.244;2024-02-15T10:46:43;20.40;;;13.00;;
57327;SDS011;43162;51.040;18.244;2024-02-15T10:49:11;23.70;;;13.60;;
57327;SDS011;43162;51.040;18.244;2024-02-15T10:51:36;20.90;;;12.80;;
57327;SDS011;43162;51.040;18.244;2024-02-15T10:54:08;23.00;;;13.00;;
57327;SDS011;43162;51.040;18.244;2024-02-15T10:56:42;23.90;;;13.40;;
57327;SDS011;43162;51.040;18.244;2024-02-15T10:59:19;24.20;;;13.30;;
57327;SDS011;43162;51.040;18.244;2024-02-15T11:01:46;19.90;;;12.00;;
57327;SDS011;43162;51.040;18.244;2024-02-15T11:04:15;20.80;;;13.10;;
57327;SDS011;43162;51.040;18.244;2024-02-15T11:06:43;23.60;;;11.60;;
57327;SDS011;43162;51.040;18.244;2024-02-15T11:09:10;17.20;;;11.60;;
57327;SDS011;43162;51.040;18.244;2024-02-15T11:11:37;23.00;;;11.50;;
57327;SDS011;43162;51.040;18.244;2024-02-15T11:17:00;18.60;;;11.70;;
57327;SDS011;43162;51.040;18.244;2024-02-15T11:22:00;18.10;;;12.10;;
57327;SDS011;43162;51.040;18.244;2024-02-15T11:24:30;20.30;;;13.00;;
57327;SDS011;43162;51.040;18.244;2024-02-15T11:27:02;18.00;;;11.40;;
57327;SDS011;43162;51.040;18.244;2024-02-15T11:29:51;20.60;;;11.80;;
57327;SDS011;43162;51.040;18.244;2024-02-15T11:35:21;17.40;;;11.50;;
57327;SDS011;43162;51.040;18.244;2024-02-15T11:40:16;17.30;;;11.30;;
57327;SDS011;43162;51.040;18.244;2024-02-15T11:42:52;17.10;;;11.40;;
57327;SDS011;43162;51.040;18.244;2024-02-15T11:45:30;18.10;;;10.90;;
57327;SDS011;43162;51.040;18.244;2024-02-15T11:48:02;19.60;;;11.30;;
57327;SDS011;43162;51.040;18.244;2024-02-15T11:50:30;18.40;;;14.60;;
57327;SDS011;43162;51.040;18.244;2024-02-15T11:53:03;22.60;;;12.60;;
57327;SDS011;43162;51.040;18.244;2024-02-15T11:55:36;16.70;;;11.20;;
57327;SDS011;43162;51.040;18.244;2024-02-15T11:58:05;19.00;;;11.90;;
57327;SDS011;43162;51.040;18.244;2024-02-15T12:00:32;22.60;;;11.90;;
57327;SDS011;43162;51.040;18.244;2024-02-15T12:03:17;19.80;;;12.20;;
57327;SDS011;43162;51.040;18.244;2024-02-15T12:06:02;20.10;;;12.50;;
57327;SDS011;43162;51.040;18.244;2024-02-15T12:08:48;19.20;;;12.70;;
57327;SDS011;43162;51.040;18.244;2024-02-15T12:11:34;17.20;;;10.50;;
57327;SDS011;43162;51.040;18.244;2024-02-15T12:14:18;18.10;;;11.30;;
57327;SDS011;43162;51.040;18.244;2024-02-15T12:17:12;19.20;;;11.70;;
57327;SDS011;43162;51.040;18.244;2024-02-15T12:20:01;13.40;;;8.80;;
57327;SDS011;43162;51.040;18.244;2024-02-15T12:25:06;23.60;;;9.50;;
57327;SDS011;43162;51.040;18.244;2024-02-15T12:27:42;14.30;;;8.00;;
57327;SDS011;43162;51.040;18.244;2024-02-15T12:30:15;13.30;;;6.90;;
57327;SDS011;43162;51.040;18.244;2024-02-15T12:32:45;13.70;;;8.50;;
57327;SDS011;43162;51.040;18.244;2024-02-15T12:35:13;14.40;;;8.20;;
57327;SDS011;43162;51.040;18.244;2024-02-15T12:37:47;11.80;;;8.00;;
57327;SDS011;43162;51.040;18.244;2024-02-15T12:40:36;12.00;;;7.50;;
57327;SDS011;43162;51.040;18.244;2024-02-15T12:43:06;14.20;;;8.30;;
57327;SDS011;43162;51.040;18.244;2024-02-15T12:45:35;14.20;;;8.50;;
57327;SDS011;43162;51.040;18.244;2024-02-15T12:48:05;32.30;;;19.00;;
57327;SDS011;43162;51.040;18.244;2024-02-15T12:50:31;15.10;;;9.30;;
57327;SDS011;43162;51.040;18.244;2024-02-15T12:52:58;13.90;;;8.60;;
57327;SDS011;43162;51.040;18.244;2024-02-15T12:55:28;15.60;;;7.50;;
57327;SDS011;43162;51.040;18.244;2024-02-15T12:58:00;11.50;;;7.60;;
57327;SDS011;43162;51.040;18.244;2024-02-15T13:00:29;14.50;;;8.60;;
57327;SDS011;43162;51.040;18.244;2024-02-15T13:02:58;10.90;;;7.20;;
57327;SDS011;43162;51.040;18.244;2024-02-15T13:05:25;14.10;;;8.30;;
57327;SDS011;43162;51.040;18.244;2024-02-15T13:07:52;14.60;;;7.90;;
57327;SDS011;43162;51.040;18.244;2024-02-15T13:10:23;14.60;;;6.30;;
57327;SDS011;43162;51.040;18.244;2024-02-15T13:12:51;16.60;;;7.40;;
57327;SDS011;43162;51.040;18.244;2024-02-15T13:15:17;10.20;;;7.20;;
57327;SDS011;43162;51.040;18.244;2024-02-15T13:17:45;13.10;;;8.00;;
57327;SDS011;43162;51.040;18.244;2024-02-15T13:20:11;7.50;;;5.30;;
57327;SDS011;43162;51.040;18.244;2024-02-15T13:22:42;13.40;;;6.30;;
57327;SDS011;43162;51.040;18.244;2024-02-15T13:25:13;10.10;;;6.80;;
57327;SDS011;43162;51.040;18.244;2024-02-15T13:27:42;10.80;;;6.70;;
57327;SDS011;43162;51.040;18.244;2024-02-15T13:30:08;10.00;;;6.30;;
57327;SDS011;43162;51.040;18.244;2024-02-15T13:32:38;11.70;;;7.00;;
57327;SDS011;43162;51.040;18.244;2024-02-15T13:35:06;10.90;;;6.00;;
57327;SDS011;43162;51.040;18.244;2024-02-15T13:37:48;10.30;;;5.10;;
57327;SDS011;43162;51.040;18.244;2024-02-15T13:40:20;7.70;;;4.50;;
57327;SDS011;43162;51.040;18.244;2024-02-15T13:42:49;6.00;;;3.80;;
57327;SDS011;43162;51.040;18.244;2024-02-15T13:47:48;6.10;;;3.60;;
57327;SDS011;43162;51.040;18.244;2024-02-15T13:50:14;6.10;;;3.60;;
57327;SDS011;43162;51.040;18.244;2024-02-15T13:52:41;6.70;;;3.30;;
57327;SDS011;43162;51.040;18.244;2024-02-15T13:55:12;9.00;;;3.90;;
57327;SDS011;43162;51.040;18.244;2024-02-15T13:57:43;7.00;;;4.00;;
57327;SDS011;43162;51.040;18.244;2024-02-15T14:00:10;5.80;;;3.90;;
57327;SDS011;43162;51.040;18.244;2024-02-15T14:02:49;8.70;;;4.30;;
57327;SDS011;43162;51.040;18.244;2024-02-15T14:05:16;5.20;;;3.40;;
57327;SDS011;43162;51.040;18.244;2024-02-15T14:07:46;7.70;;;4.40;;
57327;SDS011;43162;51.040;18.244;2024-02-15T14:10:13;7.20;;;3.50;;
57327;SDS011;43162;51.040;18.244;2024-02-15T14:12:39;6.20;;;3.30;;
57327;SDS011;43162;51.040;18.244;2024-02-15T14:15:04;6.80;;;3.90;;
57327;SDS011;43162;51.040;18.244;2024-02-15T14:17:31;4.10;;;3.10;;
57327;SDS011;43162;51.040;18.244;2024-02-15T14:19:57;9.20;;;4.30;;
57327;SDS011;43162;51.040;18.244;2024-02-15T14:22:23;12.70;;;5.10;;
57327;SDS011;43162;51.040;18.244;2024-02-15T14:24:54;16.40;;;7.10;;
57327;SDS011;43162;51.040;18.244;2024-02-15T14:27:21;15.60;;;7.10;;
57327;SDS011;43162;51.040;18.244;2024-02-15T14:29:46;15.60;;;6.20;;
57327;SDS011;43162;51.040;18.244;2024-02-15T14:32:32;10.10;;;5.30;;
57327;SDS011;43162;51.040;18.244;2024-02-15T14:35:16;16.40;;;6.50;;
57327;SDS011;43162;51.040;18.244;2024-02-15T14:37:42;9.70;;;5.20;;
57327;SDS011;43162;51.040;18.244;2024-02-15T14:40:10;7.80;;;4.50;;